Time;durP1;ratioP1;P1;durP2;ratioP2;P2;SDS_P1;SDS_P2;PMS_P1;PMS_P2;Temp;Humidity;BMP_temperature;BMP_pressure;BME280_temperature;BME280_humidity;BME280_pressure;Samples;Min_cycle;Max_cycle;Signal;HPM_P1;HPM_P2
2023/08/10 00:01:18;;;;;;;5.60;2.88;;;14.30;99.90;;;;;;5000262;28;20023;-66
2023/08/10 00:03:44;;;;;;;4.35;3.03;;;14.30;99.90;;;;;;4999911;28;20056;-66
2023/08/10 00:06:10;;;;;;;7.47;2.60;;;14.30;99.90;;;;;;4999220;28;20041;-66
2023/08/10 00:08:36;;;;;;;7.38;3.72;;;14.20;99.90;;;;;;5000244;28;20031;-66
2023/08/10 00:11:02;;;;;;;5.93;2.72;;;14.10;99.90;;;;;;4999944;28;20038;-66
2023/08/10 00:13:29;;;;;;;7.22;2.88;;;14.20;99.90;;;;;;4999841;28;20050;-66
2023/08/10 00:15:55;;;;;;;8.48;3.47;;;14.20;99.90;;;;;;4999655;28;20023;-66
2023/08/10 00:18:20;;;;;;;8.50;3.22;;;14.10;99.90;;;;;;4999574;28;20158;-66
2023/08/10 00:20:46;;;;;;;5.78;2.80;;;14.10;99.90;;;;;;4999290;28;20037;-66
2023/08/10 00:23:11;;;;;;;6.80;2.50;;;14.00;99.90;;;;;;4998564;28;20022;-66
2023/08/10 00:25:37;;;;;;;5.65;2.67;;;13.90;99.90;;;;;;4998601;28;20026;-66
2023/08/10 00:28:04;;;;;;;6.30;2.97;;;13.90;99.90;;;;;;4998927;28;20037;-66
2023/08/10 00:30:30;;;;;;;6.35;3.03;;;13.90;99.90;;;;;;4999344;28;20026;-66
2023/08/10 00:32:55;;;;;;;4.53;2.90;;;14.00;99.90;;;;;;4999409;28;20037;-66
2023/08/10 00:35:21;;;;;;;3.78;2.78;;;14.10;99.90;;;;;;4999248;28;20026;-66
2023/08/10 00:37:48;;;;;;;8.40;2.47;;;14.10;99.90;;;;;;4998259;28;20121;-66
2023/08/10 00:40:15;;;;;;;4.13;2.47;;;14.10;99.90;;;;;;4999463;28;20018;-66
2023/08/10 00:42:40;;;;;;;3.95;2.50;;;13.90;99.90;;;;;;4998880;28;20069;-66
2023/08/10 00:45:07;;;;;;;8.45;3.03;;;13.70;99.90;;;;;;4999440;28;20022;-66
2023/08/10 00:47:32;;;;;;;6.13;2.72;;;13.60;99.90;;;;;;4998940;28;20122;-66
2023/08/10 00:49:59;;;;;;;6.05;2.42;;;13.70;99.90;;;;;;4998461;28;20057;-66
2023/08/10 00:52:24;;;;;;;5.65;2.90;;;13.60;99.90;;;;;;4998930;28;20033;-66
2023/08/10 00:54:50;;;;;;;5.60;2.53;;;13.60;99.90;;;;;;4998220;28;20026;-66
2023/08/10 00:57:15;;;;;;;4.85;2.20;;;13.60;99.90;;;;;;4998220;28;20022;-66
2023/08/10 00:59:42;;;;;;;5.43;2.35;;;13.80;99.90;;;;;;4997973;28;20018;-66
2023/08/10 01:02:09;;;;;;;4.38;2.20;;;13.80;99.90;;;;;;4998835;28;20026;-66
2023/08/10 01:04:35;;;;;;;3.50;2.47;;;13.80;99.90;;;;;;4997926;28;20030;-66
2023/08/10 01:07:17;;;;;;;6.93;2.10;;;13.90;99.90;;;;;;4997796;28;20038;-66
2023/08/10 01:10:03;;;;;;;6.80;2.58;;;14.00;99.90;;;;;;4999041;28;20054;-66
2023/08/10 01:12:41;;;;;;;7.07;2.42;;;14.00;99.90;;;;;;4997700;28;20033;-66
2023/08/10 01:15:18;;;;;;;4.38;2.67;;;14.00;99.90;;;;;;4998009;28;20026;-66
2023/08/10 01:17:51;;;;;;;3.80;2.90;;;13.80;99.90;;;;;;4998438;28;20030;-66
2023/08/10 01:20:19;;;;;;;4.10;2.35;;;13.70;99.90;;;;;;4997552;28;20054;-66
2023/08/10 01:23:10;;;;;;;6.00;2.53;;;13.50;99.90;;;;;;4998449;28;20117;-66
2023/08/10 01:25:36;;;;;;;4.25;2.30;;;13.60;99.90;;;;;;4998437;28;20085;-66
2023/08/10 01:28:02;;;;;;;9.65;2.92;;;13.70;99.90;;;;;;4998346;28;20038;-65
2023/08/10 01:30:28;;;;;;;10.77;3.15;;;13.60;99.90;;;;;;4998171;28;20030;-66
2023/08/10 01:32:53;;;;;;;6.15;2.67;;;13.60;99.90;;;;;;4996729;28;20030;-66
2023/08/10 01:35:19;;;;;;;8.02;2.50;;;13.60;99.90;;;;;;4997319;28;20031;-66
2023/08/10 01:37:44;;;;;;;17.58;3.50;;;13.70;99.90;;;;;;4997226;28;20022;-66
2023/08/10 01:40:12;;;;;;;4.13;2.38;;;13.80;99.90;;;;;;4998099;28;20026;-66
2023/08/10 01:42:41;;;;;;;8.52;2.65;;;13.90;99.90;;;;;;4998075;28;20014;-66
2023/08/10 01:45:08;;;;;;;8.57;2.90;;;13.90;99.90;;;;;;4997056;28;20026;-66
2023/08/10 01:47:44;;;;;;;6.80;2.60;;;13.70;99.90;;;;;;4998279;28;20061;-66
2023/08/10 01:50:11;;;;;;;4.45;2.30;;;13.80;99.90;;;;;;4997047;28;20050;-65
2023/08/10 01:53:02;;;;;;;7.05;3.15;;;13.80;99.90;;;;;;4997944;28;20033;-66
2023/08/10 01:55:28;;;;;;;5.65;2.67;;;13.60;99.90;;;;;;4996887;28;20022;-66
2023/08/10 01:57:54;;;;;;;5.65;2.42;;;13.60;99.90;;;;;;4998151;28;20031;-66
2023/08/10 02:00:20;;;;;;;6.13;3.05;;;13.60;99.90;;;;;;4997950;28;20098;-66
2023/08/10 02:02:45;;;;;;;3.05;2.13;;;13.50;99.90;;;;;;4997216;28;20025;-65
2023/08/10 02:05:12;;;;;;;7.30;2.80;;;13.50;99.90;;;;;;4997938;28;20035;-66
2023/08/10 02:07:38;;;;;;;7.43;2.47;;;13.50;99.90;;;;;;5037546;22;20030;-69
2023/08/10 02:10:04;;;;;;;7.32;2.60;;;13.60;99.90;;;;;;5017560;28;20014;-69
2023/08/10 02:12:29;;;;;;;7.78;2.92;;;13.60;99.90;;;;;;5017550;28;20022;-69
2023/08/10 02:14:58;;;;;;;5.13;2.42;;;13.70;99.90;;;;;;5017820;28;20036;-69
2023/08/10 02:17:25;;;;;;;9.20;2.75;;;13.80;99.90;;;;;;5016365;28;20042;-69
2023/08/10 02:19:50;;;;;;;4.05;2.90;;;13.90;99.90;;;;;;5016451;28;20029;-69
2023/08/10 02:22:16;;;;;;;3.05;2.20;;;13.90;99.90;;;;;;5016274;28;20018;-69
2023/08/10 02:24:42;;;;;;;5.15;2.70;;;13.90;99.90;;;;;;5016304;28;20034;-69
2023/08/10 02:27:07;;;;;;;7.95;3.38;;;13.90;99.90;;;;;;5016298;28;20025;-69
2023/08/10 02:29:33;;;;;;;7.43;2.53;;;14.00;99.90;;;;;;5016546;28;20030;-70
2023/08/10 02:32:00;;;;;;;2.92;2.35;;;14.00;99.90;;;;;;5017520;28;20030;-67
2023/08/10 02:34:26;;;;;;;4.28;2.28;;;14.00;99.90;;;;;;5017348;28;20053;-67
2023/08/10 02:36:51;;;;;;;6.28;2.55;;;14.10;99.90;;;;;;5016553;28;20025;-67
2023/08/10 02:39:17;;;;;;;7.53;2.65;;;14.00;99.90;;;;;;5017458;28;20085;-66
2023/08/10 02:41:43;;;;;;;4.78;3.00;;;14.00;99.90;;;;;;5016199;28;20033;-67
2023/08/10 02:44:08;;;;;;;5.70;2.38;;;14.00;99.90;;;;;;5019917;28;20026;-67
2023/08/10 02:46:34;;;;;;;3.35;2.47;;;14.00;99.90;;;;;;5019962;28;20022;-70
2023/08/10 02:48:59;;;;;;;7.97;3.03;;;14.00;99.90;;;;;;5020943;28;20034;-70
2023/08/10 02:51:25;;;;;;;10.13;1.92;;;13.90;99.90;;;;;;5020094;28;20022;-70
2023/08/10 02:53:50;;;;;;;4.10;2.13;;;14.00;99.90;;;;;;5019896;28;20072;-70
2023/08/10 02:56:16;;;;;;;3.47;2.45;;;14.00;99.90;;;;;;5019783;28;20026;-70
2023/08/10 02:58:42;;;;;;;3.53;2.28;;;13.90;99.90;;;;;;5019802;28;20026;-70
2023/08/10 03:01:08;;;;;;;4.85;2.25;;;13.90;99.90;;;;;;5020591;28;20022;-70
2023/08/10 03:03:34;;;;;;;5.72;2.45;;;13.90;99.90;;;;;;5020100;28;20065;-70
2023/08/10 03:06:00;;;;;;;7.60;2.65;;;13.90;99.90;;;;;;5019404;28;20038;-67
2023/08/10 03:08:26;;;;;;;6.70;3.03;;;13.80;99.90;;;;;;5019655;28;20080;-67
2023/08/10 03:10:52;;;;;;;8.82;2.80;;;13.80;99.90;;;;;;5020583;28;20112;-67
2023/08/10 03:13:17;;;;;;;3.67;2.10;;;13.80;99.90;;;;;;5019878;28;20037;-67
2023/08/10 03:15:43;;;;;;;3.97;2.33;;;13.70;99.90;;;;;;5019450;28;20022;-67
2023/08/10 03:18:09;;;;;;;7.07;2.58;;;13.80;99.90;;;;;;5019715;28;20072;-70
2023/08/10 03:20:34;;;;;;;4.90;2.72;;;13.80;99.90;;;;;;5020520;28;20046;-70
2023/08/10 03:23:00;;;;;;;6.07;2.47;;;13.90;99.90;;;;;;5019437;28;20085;-70
2023/08/10 03:25:25;;;;;;;9.45;2.90;;;13.80;99.90;;;;;;5019251;28;20037;-70
2023/08/10 03:27:51;;;;;;;5.35;2.70;;;13.70;99.90;;;;;;5020356;28;20037;-70
2023/08/10 03:30:17;;;;;;;3.03;2.45;;;13.60;99.90;;;;;;5019238;28;20033;-70
2023/08/10 03:32:42;;;;;;;2.90;2.40;;;13.70;99.90;;;;;;5019558;28;20034;-69
2023/08/10 03:35:08;;;;;;;3.38;2.55;;;13.80;99.90;;;;;;5020019;28;20037;-69
2023/08/10 03:37:33;;;;;;;2.75;2.30;;;13.80;99.90;;;;;;5019214;28;20018;-69
2023/08/10 03:39:59;;;;;;;2.50;2.28;;;13.90;99.90;;;;;;5020276;28;20026;-69
2023/08/10 03:42:25;;;;;;;3.22;2.15;;;13.90;99.90;;;;;;5019013;28;20049;-69
2023/08/10 03:44:50;;;;;;;5.00;2.80;;;13.80;99.90;;;;;;5019037;28;20084;-66
2023/08/10 03:47:16;;;;;;;9.05;3.10;;;13.80;99.90;;;;;;5019111;28;20029;-66
2023/08/10 03:49:41;;;;;;;5.50;2.80;;;13.90;99.90;;;;;;5018740;28;20022;-66
2023/08/10 03:52:07;;;;;;;3.80;2.65;;;13.90;99.90;;;;;;5019178;28;20026;-66
2023/08/10 03:54:32;;;;;;;3.22;2.40;;;13.90;99.90;;;;;;5018194;28;20026;-66
2023/08/10 03:56:58;;;;;;;3.22;2.22;;;14.00;99.90;;;;;;5018861;28;20022;-66
2023/08/10 03:59:23;;;;;;;4.28;2.70;;;14.00;99.90;;;;;;5018739;28;20087;-70
2023/08/10 04:01:49;;;;;;;3.53;2.45;;;14.00;99.90;;;;;;5018696;28;20022;-70
2023/08/10 04:04:14;;;;;;;4.22;2.70;;;14.00;99.90;;;;;;5018675;28;20029;-70
2023/08/10 04:06:40;;;;;;;3.20;2.40;;;14.00;99.90;;;;;;5018346;28;20052;-70
2023/08/10 04:09:06;;;;;;;4.30;2.38;;;14.00;99.90;;;;;;5018557;28;20046;-70
2023/08/10 04:11:32;;;;;;;6.32;2.53;;;14.10;99.90;;;;;;5019427;28;20056;-70
2023/08/10 04:13:57;;;;;;;2.83;2.47;;;14.10;99.90;;;;;;5019000;28;20038;-70
2023/08/10 04:16:23;;;;;;;4.07;2.65;;;14.10;99.90;;;;;;5018391;28;20137;-70
2023/08/10 04:18:48;;;;;;;3.33;2.50;;;14.00;99.90;;;;;;5018425;28;20026;-70
2023/08/10 04:21:14;;;;;;;8.65;2.33;;;14.10;99.90;;;;;;5018767;28;20022;-70
2023/08/10 04:23:40;;;;;;;8.25;3.00;;;14.10;99.90;;;;;;5019197;28;20033;-70
2023/08/10 04:26:07;;;;;;;6.85;2.72;;;14.10;99.90;;;;;;5018002;28;20048;-70
2023/08/10 04:28:32;;;;;;;6.43;2.50;;;14.20;99.90;;;;;;5019411;28;20101;-70
2023/08/10 04:30:58;;;;;;;4.80;2.50;;;14.20;99.90;;;;;;5018533;28;20053;-70
2023/08/10 04:33:24;;;;;;;4.50;3.13;;;14.20;99.90;;;;;;5019093;28;20030;-70
2023/08/10 04:35:50;;;;;;;4.65;2.20;;;14.20;99.90;;;;;;5017950;28;20037;-70
2023/08/10 04:38:15;;;;;;;5.13;2.75;;;14.20;99.90;;;;;;5017967;28;20022;-70
2023/08/10 04:40:41;;;;;;;5.35;2.97;;;14.30;99.90;;;;;;5017970;28;20014;-70
2023/08/10 04:43:06;;;;;;;5.45;2.88;;;14.20;99.90;;;;;;5018753;28;20030;-70
2023/08/10 04:45:32;;;;;;;4.40;3.03;;;14.10;99.90;;;;;;5018942;28;20037;-70
2023/08/10 04:47:58;;;;;;;5.50;3.17;;;14.10;99.90;;;;;;5017642;28;20026;-70
2023/08/10 04:50:23;;;;;;;5.00;3.00;;;14.00;99.90;;;;;;5018943;28;20062;-70
2023/08/10 04:52:49;;;;;;;9.80;3.97;;;14.00;99.90;;;;;;5018070;28;20022;-70
2023/08/10 04:55:15;;;;;;;5.45;2.63;;;14.00;99.90;;;;;;5018436;28;20018;-70
2023/08/10 04:57:40;;;;;;;5.60;3.00;;;13.90;99.90;;;;;;5018958;28;20045;-70
2023/08/10 05:00:09;;;;;;;4.25;2.80;;;13.80;99.90;;;;;;5018780;28;20028;-70
2023/08/10 05:02:35;;;;;;;7.45;2.70;;;13.70;99.90;;;;;;5018251;28;20021;-70
2023/08/10 05:05:02;;;;;;;5.40;2.97;;;13.70;99.90;;;;;;5017817;28;20057;-70
2023/08/10 05:07:28;;;;;;;3.50;2.97;;;13.90;99.90;;;;;;5017968;28;20030;-70
2023/08/10 05:09:54;;;;;;;6.45;2.80;;;14.00;99.90;;;;;;5017306;28;20052;-70
2023/08/10 05:12:19;;;;;;;4.00;2.97;;;14.10;99.90;;;;;;5017688;28;20026;-70
2023/08/10 05:14:45;;;;;;;5.22;2.85;;;14.10;99.90;;;;;;5017797;28;20025;-70
2023/08/10 05:17:10;;;;;;;9.48;3.70;;;14.10;99.90;;;;;;5017272;28;20022;-70
2023/08/10 05:19:36;;;;;;;6.32;3.40;;;14.10;99.90;;;;;;5017348;28;20022;-70
2023/08/10 05:22:01;;;;;;;5.43;3.00;;;14.10;99.90;;;;;;5017906;28;20022;-70
2023/08/10 05:24:27;;;;;;;4.50;3.20;;;14.10;99.90;;;;;;5017581;28;20026;-70
2023/08/10 05:26:53;;;;;;;7.60;3.70;;;14.10;99.90;;;;;;5017759;28;20049;-70
2023/08/10 05:29:18;;;;;;;6.63;3.53;;;14.10;99.90;;;;;;5017242;28;20032;-70
2023/08/10 05:31:44;;;;;;;9.63;4.00;;;14.20;99.90;;;;;;5016969;28;20112;-70
2023/08/10 05:34:10;;;;;;;9.82;3.20;;;14.30;99.90;;;;;;5016946;28;20044;-70
2023/08/10 05:36:35;;;;;;;9.18;4.22;;;14.60;99.90;;;;;;5016865;28;20022;-70
2023/08/10 05:39:01;;;;;;;7.18;3.47;;;14.60;99.90;;;;;;5017177;28;20060;-70
2023/08/10 05:41:27;;;;;;;6.80;3.45;;;14.60;99.90;;;;;;5016901;28;20044;-70
2023/08/10 05:43:52;;;;;;;9.95;3.63;;;14.70;99.90;;;;;;5017114;28;20048;-70
2023/08/10 05:46:18;;;;;;;6.85;3.47;;;14.80;99.90;;;;;;5016988;28;20064;-70
2023/08/10 05:48:43;;;;;;;8.05;3.67;;;14.80;99.90;;;;;;5017070;28;20131;-70
2023/08/10 05:51:09;;;;;;;6.45;3.95;;;14.80;99.90;;;;;;5017073;28;20022;-70
2023/08/10 05:53:34;;;;;;;9.52;4.38;;;14.90;99.90;;;;;;5017185;28;20032;-70
2023/08/10 05:56:00;;;;;;;5.45;4.05;;;15.10;99.90;;;;;;5017430;28;20049;-71
2023/08/10 05:58:25;;;;;;;6.53;3.97;;;15.10;99.90;;;;;;5016652;28;20072;-70
2023/08/10 06:00:51;;;;;;;10.55;3.72;;;15.10;99.90;;;;;;5016992;28;20029;-70
2023/08/10 06:03:17;;;;;;;9.63;4.63;;;15.00;99.90;;;;;;5016832;28;20076;-70
2023/08/10 06:05:43;;;;;;;11.35;4.13;;;15.00;99.90;;;;;;5016483;28;20092;-70
2023/08/10 06:08:09;;;;;;;7.93;4.47;;;15.10;99.90;;;;;;5017755;28;20025;-70
2023/08/10 06:10:34;;;;;;;6.68;3.45;;;15.10;99.90;;;;;;5016764;28;20026;-70
2023/08/10 06:13:00;;;;;;;9.43;4.47;;;15.20;99.90;;;;;;5017263;28;20109;-70
2023/08/10 06:15:26;;;;;;;6.45;3.75;;;15.20;99.90;;;;;;5017240;28;20030;-70
2023/08/10 06:17:51;;;;;;;7.03;3.85;;;15.20;99.90;;;;;;5015808;28;20030;-70
2023/08/10 06:20:20;;;;;;;8.07;4.22;;;15.20;99.90;;;;;;5016536;28;20026;-70
2023/08/10 06:22:45;;;;;;;8.77;4.30;;;15.20;99.90;;;;;;5017628;28;20022;-69
2023/08/10 06:25:12;;;;;;;9.57;3.88;;;15.20;99.90;;;;;;5017682;28;20029;-69
2023/08/10 06:27:38;;;;;;;4.93;4.03;;;15.30;99.90;;;;;;5016626;28;20055;-69
2023/08/10 06:30:04;;;;;;;5.72;3.85;;;15.40;99.90;;;;;;5016563;28;20026;-69
2023/08/10 06:32:31;;;;;;;15.43;4.45;;;15.40;99.90;;;;;;5016454;28;20163;-69
2023/08/10 06:34:57;;;;;;;6.30;4.10;;;15.30;99.90;;;;;;5017008;28;20030;-69
2023/08/10 06:37:22;;;;;;;9.40;4.90;;;15.50;99.90;;;;;;5016183;28;20018;-69
2023/08/10 06:39:48;;;;;;;15.38;3.97;;;15.60;99.90;;;;;;5016194;28;20014;-69
2023/08/10 06:42:15;;;;;;;8.32;4.30;;;15.50;99.90;;;;;;5016219;28;20026;-69
2023/08/10 06:44:40;;;;;;;6.32;3.90;;;15.50;99.90;;;;;;5016146;28;20033;-69
2023/08/10 06:47:06;;;;;;;4.90;3.78;;;15.80;99.90;;;;;;5017007;28;20026;-69
2023/08/10 06:49:31;;;;;;;7.78;3.92;;;15.90;99.90;;;;;;5016096;28;20042;-69
2023/08/10 06:51:57;;;;;;;5.50;3.92;;;15.90;99.90;;;;;;5016368;28;20033;-69
2023/08/10 06:54:24;;;;;;;9.00;4.22;;;15.90;99.90;;;;;;5016343;28;20068;-69
2023/08/10 06:56:49;;;;;;;6.88;3.83;;;16.00;99.90;;;;;;5016746;28;20092;-69
2023/08/10 06:59:15;;;;;;;6.20;3.55;;;16.10;99.90;;;;;;5017261;28;20038;-69
2023/08/10 07:01:41;;;;;;;7.50;3.65;;;16.30;99.90;;;;;;5015984;28;20026;-69
2023/08/10 07:04:07;;;;;;;9.18;4.05;;;16.50;99.90;;;;;;5016364;28;20025;-69
2023/08/10 07:06:32;;;;;;;8.23;3.90;;;16.60;99.90;;;;;;5016654;28;20061;-69
2023/08/10 07:08:58;;;;;;;7.65;3.90;;;16.60;99.90;;;;;;5017279;28;20029;-69
2023/08/10 07:11:23;;;;;;;7.82;3.53;;;16.50;99.90;;;;;;5015802;28;20037;-69
2023/08/10 07:13:49;;;;;;;4.20;3.35;;;16.50;99.90;;;;;;5015911;28;20022;-70
2023/08/10 07:16:15;;;;;;;10.30;4.28;;;16.50;99.90;;;;;;5015621;28;20026;-69
2023/08/10 07:18:41;;;;;;;9.32;3.80;;;16.70;99.90;;;;;;5017049;28;20025;-70
2023/08/10 07:21:06;;;;;;;5.90;3.72;;;16.80;99.90;;;;;;5015757;28;20045;-69
2023/08/10 07:23:32;;;;;;;5.85;3.30;;;16.90;99.90;;;;;;5016780;28;20033;-69
2023/08/10 07:25:58;;;;;;;5.45;3.38;;;16.80;99.90;;;;;;5015788;28;20026;-69
2023/08/10 07:28:23;;;;;;;3.95;3.15;;;16.90;99.90;;;;;;5016766;28;20101;-69
2023/08/10 07:30:50;;;;;;;7.75;3.42;;;16.90;99.90;;;;;;5018388;28;20022;-69
2023/08/10 07:33:16;;;;;;;4.95;2.78;;;17.00;99.90;;;;;;5019090;28;20049;-69
2023/08/10 07:35:42;;;;;;;5.38;3.63;;;17.10;99.90;;;;;;5019070;28;20029;-69
2023/08/10 07:38:08;;;;;;;5.80;3.97;;;17.00;99.90;;;;;;5019040;28;20022;-70
2023/08/10 07:40:33;;;;;;;5.30;3.65;;;17.10;99.90;;;;;;5019113;28;20086;-69
2023/08/10 07:42:59;;;;;;;10.85;3.38;;;17.10;99.90;;;;;;5019994;28;20037;-69
2023/08/10 07:45:25;;;;;;;7.53;3.75;;;17.30;99.90;;;;;;5018875;28;20022;-69
2023/08/10 07:47:50;;;;;;;5.00;3.38;;;17.40;99.90;;;;;;5019904;28;20029;-69
2023/08/10 07:50:16;;;;;;;6.38;3.58;;;17.60;99.90;;;;;;5019804;28;20026;-69
2023/08/10 07:52:41;;;;;;;6.50;3.42;;;17.50;99.90;;;;;;5019344;28;20030;-69
2023/08/10 07:55:07;;;;;;;4.28;3.10;;;17.40;99.90;;;;;;5019533;28;20098;-69
2023/08/10 07:57:33;;;;;;;5.85;3.08;;;17.50;99.90;;;;;;5019641;28;20046;-69
2023/08/10 08:00:04;;;;;;;7.10;3.05;;;17.60;99.90;;;;;;5020133;28;20100;-69
2023/08/10 08:02:31;;;;;;;7.25;2.95;;;17.60;99.90;;;;;;5018647;28;20029;-69
2023/08/10 08:04:57;;;;;;;5.07;3.30;;;17.70;99.90;;;;;;5018792;28;20036;-69
2023/08/10 08:07:23;;;;;;;4.63;3.08;;;17.70;99.90;;;;;;5042657;22;20034;-66
2023/08/10 08:09:49;;;;;;;12.02;3.33;;;17.70;99.90;;;;;;5019485;28;20018;-66
2023/08/10 08:12:14;;;;;;;4.35;2.55;;;17.80;99.90;;;;;;5018497;28;20033;-66
2023/08/10 08:14:40;;;;;;;6.35;2.35;;;18.30;99.90;;;;;;5018385;28;20097;-66
2023/08/10 08:17:05;;;;;;;5.65;1.98;;;18.50;99.90;;;;;;5035241;28;20112;-66
2023/08/10 08:19:33;;;;;;;5.60;1.95;;;18.60;99.90;;;;;;5036013;28;20022;-66
2023/08/10 08:21:58;;;;;;;2.33;1.80;;;18.70;99.90;;;;;;5019335;28;20081;-66
2023/08/10 08:24:24;;;;;;;10.20;2.55;;;18.80;99.90;;;;;;5019479;28;20104;-66
2023/08/10 08:26:49;;;;;;;6.28;2.60;;;18.90;99.90;;;;;;5019318;28;20109;-66
2023/08/10 08:29:15;;;;;;;4.55;2.30;;;19.10;99.90;;;;;;5019102;28;20105;-66
2023/08/10 08:31:40;;;;;;;4.85;2.70;;;19.10;99.90;;;;;;5018581;28;20045;-66
2023/08/10 08:34:06;;;;;;;6.22;2.13;;;19.20;99.90;;;;;;5019226;28;20045;-66
2023/08/10 08:36:31;;;;;;;2.88;2.10;;;19.20;99.90;;;;;;5017778;28;20026;-67
2023/08/10 08:38:57;;;;;;;5.90;2.20;;;19.30;99.90;;;;;;5018065;28;20029;-66
2023/08/10 08:41:31;;;;;;;5.75;1.92;;;19.20;99.90;;;;;;5017517;28;20053;-66
2023/08/10 08:43:57;;;;;;;4.88;2.17;;;19.00;99.90;;;;;;5018068;28;20022;-66
2023/08/10 08:46:28;;;;;;;3.25;1.80;;;18.90;99.90;;;;;;5017841;28;20079;-66
2023/08/10 08:48:54;;;;;;;2.88;2.10;;;19.10;99.90;;;;;;5018664;28;20030;-66
2023/08/10 08:51:19;;;;;;;6.47;1.10;;;19.20;99.90;;;;;;5034368;28;20026;-66
2023/08/10 08:53:45;;;;;;;3.70;1.50;;;19.40;99.90;;;;;;5017764;28;20125;-66
2023/08/10 08:56:11;;;;;;;3.58;1.08;;;19.70;99.90;;;;;;5017987;28;20049;-66
2023/08/10 08:58:37;;;;;;;4.75;2.00;;;19.80;99.90;;;;;;5018525;28;20018;-66
2023/08/10 09:01:03;;;;;;;4.30;1.73;;;19.90;99.90;;;;;;5017944;28;20029;-66
2023/08/10 09:03:29;;;;;;;3.58;1.80;;;20.00;99.90;;;;;;5034205;28;20026;-66
2023/08/10 09:05:55;;;;;;;2.88;1.33;;;19.90;99.90;;;;;;5017479;28;20022;-66
2023/08/10 09:08:21;;;;;;;3.92;1.60;;;19.80;99.90;;;;;;5017814;28;20068;-66
2023/08/10 09:10:47;;;;;;;3.00;1.00;;;19.90;99.90;;;;;;5018352;28;20026;-66
2023/08/10 09:13:17;;;;;;;6.03;1.60;;;20.10;99.90;;;;;;5018310;28;20026;-66
2023/08/10 09:15:42;;;;;;;5.07;1.10;;;20.10;99.90;;;;;;5017297;28;20030;-66
2023/08/10 09:18:08;;;;;;;2.92;1.30;;;20.10;99.90;;;;;;5017573;28;20093;-67
2023/08/10 09:20:34;;;;;;;1.63;1.20;;;20.10;99.90;;;;;;5017245;28;20026;-66
2023/08/10 09:23:00;;;;;;;1.92;1.30;;;20.10;99.90;;;;;;5017256;28;20060;-66
2023/08/10 09:25:37;;;;;;;5.07;1.83;;;20.10;99.90;;;;;;5017977;28;20030;-66
2023/08/10 09:28:08;;;;;;;4.43;1.65;;;20.30;99.90;;;;;;5017476;28;20022;-66
2023/08/10 09:30:33;;;;;;;4.73;1.37;;;20.40;99.90;;;;;;5017178;28;20026;-66
2023/08/10 09:32:59;;;;;;;4.30;1.45;;;20.40;99.90;;;;;;5017854;28;20030;-66
2023/08/10 09:35:30;;;;;;;3.00;1.00;;;20.30;99.90;;;;;;5017496;28;20026;-66
2023/08/10 09:38:00;;;;;;;3.17;1.58;;;20.20;99.90;;;;;;5017867;28;20026;-68
2023/08/10 09:40:26;;;;;;;7.28;1.30;;;20.40;99.90;;;;;;5017821;28;20109;-68
2023/08/10 09:42:53;;;;;;;2.30;1.10;;;20.40;99.90;;;;;;5017462;28;20030;-68
2023/08/10 09:45:19;;;;;;;6.55;1.60;;;20.80;99.90;;;;;;5016790;28;20026;-68
2023/08/10 09:47:44;;;;;;;2.08;0.90;;;21.00;99.90;;;;;;5017668;28;20022;-68
2023/08/10 09:50:15;;;;;;;6.03;1.17;;;20.90;99.90;;;;;;5017256;28;20026;-68
2023/08/10 09:52:41;;;;;;;3.00;1.40;;;20.90;99.90;;;;;;5016527;28;20046;-68
2023/08/10 09:55:08;;;;;;;3.75;1.20;;;20.90;99.90;;;;;;5016484;28;20033;-68
2023/08/10 09:57:40;;;;;;;1.90;1.58;;;20.80;99.90;;;;;;5016630;28;20033;-68
2023/08/10 10:00:18;;;;;;;3.70;1.42;;;20.80;99.90;;;;;;5017697;28;20053;-68
2023/08/10 10:02:44;;;;;;;4.03;1.25;;;21.10;99.90;;;;;;5017628;28;20080;-68
2023/08/10 10:05:09;;;;;;;3.75;1.50;;;21.30;99.90;;;;;;5017555;28;20025;-68
2023/08/10 10:07:35;;;;;;;2.88;1.33;;;21.40;99.90;;;;;;5016779;28;20041;-68
2023/08/10 10:10:01;;;;;;;2.50;1.30;;;21.60;99.90;;;;;;5016889;28;20022;-68
2023/08/10 10:12:34;;;;;;;5.50;1.20;;;21.70;99.90;;;;;;5017356;28;20037;-68
2023/08/10 10:15:00;;;;;;;5.13;1.40;;;21.70;99.90;;;;;;5016899;28;20167;-68
2023/08/10 10:17:26;;;;;;;3.13;1.15;;;21.70;99.90;;;;;;5016399;28;20099;-68
2023/08/10 10:19:52;;;;;;;5.00;1.35;;;21.90;99.90;;;;;;5016808;28;20049;-69
2023/08/10 10:22:18;;;;;;;5.32;1.33;;;22.00;99.90;;;;;;5017222;28;20103;-68
2023/08/10 10:24:44;;;;;;;2.33;1.20;;;22.10;99.90;;;;;;5016288;28;20026;-68
2023/08/10 10:27:12;;;;;;;2.42;1.33;;;22.20;99.90;;;;;;5017360;28;20096;-68
2023/08/10 10:29:51;;;;;;;1.98;1.30;;;22.20;99.90;;;;;;5017305;28;20037;-68
2023/08/10 10:32:21;;;;;;;5.40;1.63;;;22.30;99.90;;;;;;5017277;28;20048;-68
2023/08/10 10:34:49;;;;;;;2.33;1.35;;;22.80;99.90;;;;;;5016839;28;20022;-68
2023/08/10 10:37:21;;;;;;;4.35;1.50;;;23.30;99.20;;;;;;5016301;28;20026;-68
2023/08/10 10:39:51;;;;;;;2.78;1.30;;;23.60;99.10;;;;;;5033445;28;20018;-68
2023/08/10 10:42:18;;;;;;;3.45;1.30;;;23.70;98.10;;;;;;5016954;28;20042;-69
2023/08/10 10:45:08;;;;;;;2.38;1.33;;;24.30;98.10;;;;;;5016100;28;20033;-68
2023/08/10 10:47:38;;;;;;;2.65;1.27;;;24.50;96.10;;;;;;5016234;28;20029;-68
2023/08/10 10:50:28;;;;;;;1.13;0.77;;;25.00;92.20;;;;;;5016230;28;20049;-68
2023/08/10 10:53:05;;;;;;;4.47;1.13;;;26.00;81.30;;;;;;5017301;28;20058;-69
2023/08/10 10:55:34;;;;;;;4.47;1.70;;;26.60;75.30;;;;;;5016857;28;20022;-69
2023/08/10 10:58:03;;;;;;;2.65;1.52;;;26.30;78.30;;;;;;5032412;28;20026;-69
2023/08/10 11:00:30;;;;;;;2.47;1.20;;;26.30;83.90;;;;;;5017090;28;20022;-69
2023/08/10 11:02:56;;;;;;;3.65;1.02;;;26.30;76.10;;;;;;5016868;28;20140;-69
2023/08/10 11:05:22;;;;;;;2.72;1.33;;;27.70;68.20;;;;;;5018823;28;20057;-68
2023/08/10 11:07:50;;;;;;;1.73;1.08;;;28.00;70.20;;;;;;5020386;28;20112;-69
2023/08/10 11:10:18;;;;;;;3.80;1.33;;;28.60;65.80;;;;;;5019639;28;20030;-69
2023/08/10 11:12:45;;;;;;;1.73;1.10;;;28.10;65.60;;;;;;5036195;28;20148;-69
2023/08/10 11:15:13;;;;;;;1.92;1.10;;;27.40;70.50;;;;;;5036176;28;20057;-69
2023/08/10 11:17:46;;;;;;;1.67;1.10;;;28.20;68.00;;;;;;5020037;28;20040;-69
2023/08/10 11:20:17;;;;;;;1.48;1.10;;;29.20;64.40;;;;;;5020210;28;20026;-69
2023/08/10 11:22:47;;;;;;;4.35;1.27;;;28.00;67.20;;;;;;5020409;28;20017;-69
2023/08/10 11:25:13;;;;;;;3.72;1.30;;;27.30;67.10;;;;;;5020219;28;20121;-69
2023/08/10 11:27:44;;;;;;;2.13;1.20;;;27.60;68.20;;;;;;5036119;28;20080;-69
2023/08/10 11:30:13;;;;;;;2.85;1.30;;;29.10;61.50;;;;;;5020816;28;20026;-68
2023/08/10 11:32:41;;;;;;;2.08;1.33;;;29.80;60.40;;;;;;5019129;28;20089;-69
2023/08/10 11:35:11;;;;;;;3.78;1.55;;;29.80;61.50;;;;;;5020089;28;20037;-69
2023/08/10 11:37:43;;;;;;;3.72;1.30;;;29.10;63.10;;;;;;5019089;28;20026;-69
2023/08/10 11:40:17;;;;;;;2.25;1.00;;;28.00;65.30;;;;;;5019251;28;20022;-68
2023/08/10 11:42:49;;;;;;;3.03;1.52;;;28.90;65.20;;;;;;5019989;28;20108;-69
2023/08/10 11:45:17;;;;;;;3.22;1.17;;;29.70;64.20;;;;;;5019149;28;20114;-70
2023/08/10 11:47:44;;;;;;;3.72;1.30;;;29.00;69.80;;;;;;5018875;28;20066;-69
2023/08/10 11:50:13;;;;;;;2.65;1.65;;;29.80;67.40;;;;;;5019301;28;20053;-69
2023/08/10 11:52:39;;;;;;;4.07;1.48;;;30.40;67.30;;;;;;5019314;28;20026;-69
2023/08/10 11:55:12;;;;;;;2.88;1.40;;;31.00;65.40;;;;;;5019006;28;20048;-69
2023/08/10 11:57:39;;;;;;;3.72;1.48;;;31.80;61.80;;;;;;5035591;28;20022;-69
2023/08/10 12:00:26;;;;;;;2.13;1.52;;;31.90;63.40;;;;;;5019851;28;20020;-69
2023/08/10 12:03:04;;;;;;;2.80;1.80;;;31.60;62.80;;;;;;5019712;28;20026;-69
2023/08/10 12:05:42;;;;;;;2.50;1.65;;;29.60;63.40;;;;;;5035047;28;20164;-69
2023/08/10 12:08:11;;;;;;;2.28;1.50;;;28.50;66.30;;;;;;5019466;28;20180;-68
2023/08/10 12:10:42;;;;;;;12.68;1.67;;;27.50;65.00;;;;;;5018561;28;20033;-69
2023/08/10 12:13:14;;;;;;;2.72;1.38;;;27.20;66.50;;;;;;5019379;28;20125;-68
2023/08/10 12:15:50;;;;;;;2.70;1.38;;;27.30;66.80;;;;;;5017700;28;20038;-68
2023/08/10 12:18:18;;;;;;;5.03;2.63;;;27.40;71.80;;;;;;5018756;28;20026;-69
2023/08/10 12:20:45;;;;;;;7.75;1.70;;;28.30;70.60;;;;;;5019460;28;20021;-69
2023/08/10 12:23:11;;;;;;;3.53;2.05;;;29.50;68.80;;;;;;5035171;28;20022;-69
2023/08/10 12:25:38;;;;;;;2.20;1.48;;;31.20;65.40;;;;;;5019314;28;20026;-69
2023/08/10 12:28:05;;;;;;;2.78;1.45;;;32.20;63.50;;;;;;5018641;28;20048;-69
2023/08/10 12:30:31;;;;;;;2.58;1.40;;;32.30;62.40;;;;;;5019351;28;20034;-69
2023/08/10 12:32:57;;;;;;;4.03;1.63;;;31.10;62.90;;;;;;5018328;28;20125;-69
2023/08/10 12:35:22;;;;;;;1.77;1.50;;;31.90;61.10;;;;;;5019461;28;20109;-69
2023/08/10 12:37:48;;;;;;;1.95;1.30;;;33.10;58.50;;;;;;5018025;28;20026;-69
2023/08/10 12:40:16;;;;;;;2.17;1.42;;;32.90;59.00;;;;;;5018937;28;20018;-69
2023/08/10 12:42:43;;;;;;;1.85;1.40;;;31.90;60.70;;;;;;5018806;28;20120;-69
2023/08/10 12:45:12;;;;;;;4.30;1.58;;;32.60;59.10;;;;;;5018431;28;20026;-69